Time;durP1;ratioP1;P1;durP2;ratioP2;P2;SDS_P1;SDS_P2;PMS_P1;PMS_P2;Temp;Humidity;BMP_temperature;BMP_pressure;BME280_temperature;BME280_humidity;BME280_pressure;Samples;Min_cycle;Max_cycle;Signal;HPM_P1;HPM_P2
2021/09/11 00:01:58;;;;;;;18.45;10.32;;;16.00;92.40;;;;;;5058217;28;20029;-74
2021/09/11 00:04:24;;;;;;;20.67;9.30;;;16.10;92.30;;;;;;5076223;28;20362;-75
2021/09/11 00:06:51;;;;;;;15.55;9.30;;;16.20;92.10;;;;;;5076162;28;20501;-73
2021/09/11 00:09:16;;;;;;;20.08;9.63;;;16.30;92.10;;;;;;5076109;28;20111;-75
2021/09/11 00:11:42;;;;;;;12.80;9.52;;;16.30;92.20;;;;;;5075988;28;20020;-71
2021/09/11 00:14:08;;;;;;;14.48;9.68;;;16.20;92.20;;;;;;5058119;28;20376;-72
2021/09/11 00:16:34;;;;;;;17.92;9.35;;;16.30;92.10;;;;;;5057915;28;20028;-74
2021/09/11 00:19:00;;;;;;;18.13;9.90;;;16.30;92.00;;;;;;5076065;28;20044;-73
2021/09/11 00:21:26;;;;;;;13.93;10.13;;;16.30;92.10;;;;;;5057872;28;20059;-72
2021/09/11 00:23:52;;;;;;;22.02;10.02;;;16.30;92.20;;;;;;5057836;28;20376;-70
2021/09/11 00:26:18;;;;;;;18.70;10.68;;;16.30;92.30;;;;;;5075489;28;20532;-73
2021/09/11 00:28:44;;;;;;;26.50;11.52;;;16.20;92.50;;;;;;5054278;28;20049;-71
2021/09/11 00:31:10;;;;;;;20.85;11.93;;;16.30;92.50;;;;;;5055996;28;20039;-72
2021/09/11 00:33:37;;;;;;;24.92;11.02;;;16.30;92.40;;;;;;5055671;28;20048;-69
2021/09/11 00:36:03;;;;;;;27.77;11.27;;;16.30;92.40;;;;;;5055633;28;20481;-70
2021/09/11 00:38:29;;;;;;;23.65;12.07;;;16.20;92.70;;;;;;5053945;28;20068;-71
2021/09/11 00:40:54;;;;;;;16.55;11.55;;;16.10;92.60;;;;;;5055541;28;20029;-71
2021/09/11 00:43:26;;;;;;;17.83;11.90;;;16.00;92.70;;;;;;5055496;28;20457;-72
2021/09/11 00:45:52;;;;;;;23.58;12.55;;;16.10;97.30;;;;;;5054182;28;20067;-70
2021/09/11 00:48:18;;;;;;;24.90;11.63;;;16.10;97.20;;;;;;5055477;28;20029;-72
2021/09/11 00:50:45;;;;;;;17.95;11.18;;;16.10;95.50;;;;;;5055387;28;20032;-71
2021/09/11 00:53:13;;;;;;;28.55;12.35;;;15.90;93.60;;;;;;5053262;28;20399;-71
2021/09/11 00:55:42;;;;;;;21.17;11.60;;;15.90;96.10;;;;;;5055357;28;20107;-73
2021/09/11 00:58:08;;;;;;;23.60;13.43;;;15.80;94.40;;;;;;5053815;28;20476;-72
2021/09/11 01:00:33;;;;;;;25.30;13.77;;;15.80;94.30;;;;;;5053884;28;20118;-70
2021/09/11 01:02:59;;;;;;;24.05;12.93;;;15.70;94.90;;;;;;5053821;28;20036;-72
2021/09/11 01:05:25;;;;;;;23.67;12.50;;;15.60;94.70;;;;;;5053839;28;20067;-72
2021/09/11 01:07:51;;;;;;;26.85;12.63;;;15.60;95.10;;;;;;5055087;28;20029;-71
2021/09/11 01:10:17;;;;;;;22.40;12.05;;;15.50;95.20;;;;;;5054752;28;20035;-72
2021/09/11 01:12:44;;;;;;;24.13;11.20;;;15.60;95.40;;;;;;5054941;28;20021;-72
2021/09/11 01:15:12;;;;;;;18.73;11.88;;;15.40;95.30;;;;;;5054760;28;20081;-70
2021/09/11 01:17:42;;;;;;;17.75;11.55;;;15.40;95.70;;;;;;5054885;28;20017;-71
2021/09/11 01:20:09;;;;;;;22.23;13.40;;;15.30;95.80;;;;;;5053499;28;20529;-72
2021/09/11 01:22:35;;;;;;;26.55;14.15;;;15.30;95.50;;;;;;5054767;28;20064;-70
2021/09/11 01:25:06;;;;;;;24.92;13.38;;;15.30;95.80;;;;;;5054807;28;20029;-70
2021/09/11 01:27:33;;;;;;;20.33;11.15;;;15.30;96.00;;;;;;5053121;28;20075;-69
2021/09/11 01:30:05;;;;;;;24.58;12.10;;;15.50;96.30;;;;;;5054634;28;20043;-69
2021/09/11 01:32:32;;;;;;;26.25;11.75;;;15.50;95.60;;;;;;5053336;28;20078;-69
2021/09/11 01:34:58;;;;;;;20.85;11.00;;;15.40;95.00;;;;;;5054527;28;20037;-69
2021/09/11 01:37:24;;;;;;;20.83;11.30;;;15.30;94.80;;;;;;5054479;28;20017;-72
2021/09/11 01:39:50;;;;;;;23.77;13.15;;;15.40;94.70;;;;;;5054359;28;20112;-70
2021/09/11 01:42:25;;;;;;;24.85;12.57;;;15.30;94.70;;;;;;5054161;28;20382;-72
2021/09/11 01:44:53;;;;;;;24.17;12.40;;;15.30;95.40;;;;;;5053080;28;20457;-72
2021/09/11 01:47:19;;;;;;;23.80;12.27;;;15.20;96.20;;;;;;5052994;28;20382;-71
2021/09/11 01:49:45;;;;;;;22.20;12.13;;;15.20;96.30;;;;;;5054248;28;20028;-71
2021/09/11 01:52:12;;;;;;;21.90;13.20;;;15.20;96.80;;;;;;5052900;28;20029;-71
2021/09/11 01:54:39;;;;;;;19.88;11.93;;;15.20;97.00;;;;;;5052846;28;20025;-73
2021/09/11 01:57:06;;;;;;;17.67;11.35;;;15.30;96.60;;;;;;5052817;28;20112;-72
2021/09/11 01:59:33;;;;;;;21.20;11.02;;;15.30;96.60;;;;;;5053962;28;20036;-74
2021/09/11 02:01:59;;;;;;;19.77;10.95;;;15.30;96.60;;;;;;5052697;28;20025;-73
2021/09/11 02:04:25;;;;;;;20.77;11.77;;;15.30;96.80;;;;;;5054189;28;20059;-72
2021/09/11 02:06:51;;;;;;;19.55;11.43;;;15.30;97.00;;;;;;5053917;28;20106;-73
2021/09/11 02:09:18;;;;;;;17.95;11.57;;;15.30;97.20;;;;;;5054214;28;20457;-74
2021/09/11 02:11:44;;;;;;;19.30;11.55;;;15.30;97.60;;;;;;5052504;28;20079;-72
2021/09/11 02:14:10;;;;;;;22.67;11.77;;;15.30;97.80;;;;;;5053811;28;20260;-73
2021/09/11 02:16:36;;;;;;;24.60;12.50;;;15.20;98.30;;;;;;5053509;28;20389;-73
2021/09/11 02:19:02;;;;;;;22.83;12.68;;;15.10;98.70;;;;;;5052282;28;20029;-73
2021/09/11 02:21:28;;;;;;;22.58;11.95;;;15.10;99.00;;;;;;5052351;28;20358;-73
2021/09/11 02:23:55;;;;;;;20.45;11.23;;;15.20;98.90;;;;;;5053334;28;20074;-74
2021/09/11 02:26:21;;;;;;;19.58;12.70;;;15.20;98.90;;;;;;5052269;28;20060;-73
2021/09/11 02:28:47;;;;;;;20.63;13.00;;;15.20;99.00;;;;;;5052106;28;20057;-73
2021/09/11 02:31:13;;;;;;;23.23;12.85;;;15.20;99.30;;;;;;5053469;28;20040;-73
2021/09/11 02:33:39;;;;;;;20.25;12.73;;;15.20;99.50;;;;;;5053406;28;20021;-74
2021/09/11 02:36:05;;;;;;;19.75;13.98;;;15.10;99.90;;;;;;5052185;28;20043;-73
2021/09/11 02:38:31;;;;;;;23.48;13.38;;;15.10;99.90;;;;;;5051969;28;20036;-73
2021/09/11 02:40:57;;;;;;;22.98;13.45;;;15.00;99.90;;;;;;5053376;28;20044;-72
2021/09/11 02:43:23;;;;;;;18.77;13.45;;;15.00;99.90;;;;;;5052077;28;20075;-72
2021/09/11 02:45:49;;;;;;;19.73;11.82;;;14.90;99.90;;;;;;5052077;28;20473;-74
2021/09/11 02:48:15;;;;;;;27.80;12.85;;;14.90;99.90;;;;;;5051933;28;20031;-70
2021/09/11 02:50:41;;;;;;;21.40;12.57;;;14.90;99.90;;;;;;5051916;28;20377;-71
2021/09/11 02:53:07;;;;;;;27.30;12.98;;;14.80;99.90;;;;;;5051830;28;20461;-72
2021/09/11 02:55:33;;;;;;;22.38;13.05;;;14.90;99.90;;;;;;5051920;28;20082;-72
2021/09/11 02:57:58;;;;;;;28.52;12.70;;;14.70;99.90;;;;;;5051808;28;20461;-72
2021/09/11 03:00:24;;;;;;;27.13;14.60;;;14.60;99.90;;;;;;5051634;28;20036;-75
2021/09/11 03:02:50;;;;;;;31.67;15.00;;;14.60;99.90;;;;;;5052749;28;20079;-72
2021/09/11 03:05:16;;;;;;;26.67;15.82;;;14.50;99.90;;;;;;5051751;28;20504;-72
2021/09/11 03:07:42;;;;;;;24.52;14.98;;;14.50;99.90;;;;;;5051713;28;20037;-71
2021/09/11 03:10:08;;;;;;;21.70;12.95;;;14.40;99.90;;;;;;5052959;28;20040;-72
2021/09/11 03:12:34;;;;;;;29.27;13.52;;;14.40;99.90;;;;;;5053209;28;20029;-72
2021/09/11 03:15:05;;;;;;;25.38;13.32;;;14.40;99.90;;;;;;5055726;28;20504;-72
2021/09/11 03:17:30;;;;;;;26.13;12.07;;;14.40;99.90;;;;;;5058495;28;20047;-72
2021/09/11 03:19:57;;;;;;;19.10;11.48;;;14.30;99.90;;;;;;5059612;28;20028;-71
2021/09/11 03:22:23;;;;;;;27.40;12.13;;;14.30;99.90;;;;;;5059498;28;20044;-73
2021/09/11 03:24:48;;;;;;;22.45;11.23;;;14.30;99.90;;;;;;5059471;28;20021;-70
2021/09/11 03:27:14;;;;;;;18.52;11.68;;;14.30;99.90;;;;;;5065011;28;20047;-74
2021/09/11 03:29:40;;;;;;;21.75;11.93;;;14.40;99.90;;;;;;5079449;28;20041;-72
2021/09/11 03:32:07;;;;;;;25.92;12.02;;;14.40;99.90;;;;;;5061387;28;20387;-73
2021/09/11 03:34:33;;;;;;;30.92;13.63;;;14.50;99.90;;;;;;5079692;28;20025;-71
2021/09/11 03:36:59;;;;;;;21.98;12.15;;;14.50;99.90;;;;;;5061480;28;20093;-72
2021/09/11 03:39:26;;;;;;;24.90;11.63;;;14.50;99.90;;;;;;5061261;28;20464;-73
2021/09/11 03:41:52;;;;;;;20.95;11.57;;;14.50;99.90;;;;;;5079326;28;20135;-70
2021/09/11 03:44:22;;;;;;;25.67;12.40;;;14.50;99.90;;;;;;5079590;28;20028;-70
2021/09/11 03:46:48;;;;;;;21.80;12.43;;;14.50;99.90;;;;;;5061247;28;20419;-71
2021/09/11 03:49:14;;;;;;;17.35;11.80;;;14.50;99.90;;;;;;5061299;28;20082;-71
2021/09/11 03:51:39;;;;;;;22.48;12.10;;;14.50;99.90;;;;;;5061201;28;20074;-72
2021/09/11 03:54:05;;;;;;;23.17;11.88;;;14.50;99.90;;;;;;5079523;28;20346;-71
2021/09/11 03:56:32;;;;;;;21.48;13.05;;;14.50;99.90;;;;;;5061221;28;20024;-71
2021/09/11 03:58:58;;;;;;;24.98;12.95;;;14.40;99.90;;;;;;5061198;28;20042;-70
2021/09/11 04:01:23;;;;;;;24.27;12.73;;;14.30;99.90;;;;;;5079438;28;20455;-72
2021/09/11 04:03:49;;;;;;;26.38;12.35;;;14.30;99.90;;;;;;5079183;28;20028;-72
2021/09/11 04:06:15;;;;;;;21.00;12.10;;;14.40;99.90;;;;;;5078870;28;20103;-71
2021/09/11 04:08:41;;;;;;;25.50;12.63;;;14.40;99.90;;;;;;5079060;28;20037;-72
2021/09/11 04:11:07;;;;;;;39.22;13.27;;;14.50;99.90;;;;;;5061002;28;20031;-72
2021/09/11 04:13:34;;;;;;;28.23;13.38;;;14.40;99.90;;;;;;5078627;28;20056;-71
2021/09/11 04:16:00;;;;;;;29.48;12.40;;;14.40;99.90;;;;;;5061078;28;20060;-72
2021/09/11 04:18:26;;;;;;;20.65;12.05;;;14.40;99.90;;;;;;5078911;28;20465;-72
2021/09/11 04:20:52;;;;;;;24.10;13.65;;;14.40;99.90;;;;;;5078953;28;20032;-74
2021/09/11 04:23:18;;;;;;;19.45;13.77;;;14.30;99.90;;;;;;5060981;28;20138;-71
2021/09/11 04:25:45;;;;;;;24.90;13.70;;;14.40;99.90;;;;;;5078482;28;20504;-70
2021/09/11 04:28:11;;;;;;;35.42;14.02;;;14.30;99.90;;;;;;5056664;28;20110;-69
2021/09/11 04:30:37;;;;;;;23.42;13.63;;;14.30;99.90;;;;;;5075773;28;20033;-72
2021/09/11 04:33:03;;;;;;;24.42;12.88;;;14.40;99.90;;;;;;5075982;28;20361;-69
2021/09/11 04:35:30;;;;;;;34.63;13.63;;;14.40;99.90;;;;;;5057921;28;20358;-71
2021/09/11 04:37:57;;;;;;;32.33;13.70;;;14.40;99.90;;;;;;5075685;28;20093;-70
2021/09/11 04:40:23;;;;;;;25.40;12.77;;;14.40;99.90;;;;;;5057475;28;20036;-71
2021/09/11 04:42:49;;;;;;;24.77;13.43;;;14.40;99.90;;;;;;5057519;28;20021;-69
2021/09/11 04:45:15;;;;;;;31.52;13.82;;;14.50;99.90;;;;;;5075467;28;20426;-70
2021/09/11 04:47:40;;;;;;;27.52;12.52;;;14.50;99.90;;;;;;5075450;28;20610;-71
2021/09/11 04:50:07;;;;;;;22.05;13.07;;;14.50;99.90;;;;;;5075412;28;20471;-73
2021/09/11 04:52:33;;;;;;;22.50;12.13;;;14.50;99.90;;;;;;5075359;28;20035;-72
2021/09/11 04:54:59;;;;;;;21.52;12.25;;;14.60;99.90;;;;;;5075288;28;20063;-73
2021/09/11 04:57:25;;;;;;;19.30;12.63;;;14.60;99.90;;;;;;5075267;28;20425;-74
2021/09/11 04:59:51;;;;;;;20.98;12.20;;;14.60;99.90;;;;;;5057026;28;20040;-71
2021/09/11 05:02:17;;;;;;;22.05;12.82;;;14.60;99.90;;;;;;5074852;28;20465;-75
2021/09/11 05:04:43;;;;;;;21.63;12.07;;;14.50;99.90;;;;;;5075007;28;20078;-72
2021/09/11 05:07:09;;;;;;;27.05;13.35;;;14.60;99.90;;;;;;5075088;28;20024;-73
2021/09/11 05:09:34;;;;;;;23.58;12.02;;;14.70;99.90;;;;;;5057270;28;20419;-73
2021/09/11 05:12:04;;;;;;;21.33;12.35;;;14.70;99.90;;;;;;5074982;28;20086;-72
2021/09/11 05:14:31;;;;;;;27.42;12.93;;;14.60;99.90;;;;;;5057040;28;20362;-69
2021/09/11 05:16:58;;;;;;;23.83;13.65;;;14.60;99.90;;;;;;5074921;28;20090;-69
2021/09/11 05:19:24;;;;;;;31.67;13.07;;;14.70;99.90;;;;;;5056731;28;20039;-69
2021/09/11 05:21:50;;;;;;;25.10;13.10;;;14.80;99.90;;;;;;5056829;28;20025;-70
2021/09/11 05:24:16;;;;;;;25.92;13.07;;;14.80;99.90;;;;;;5074704;28;20025;-70
2021/09/11 05:26:43;;;;;;;24.45;11.27;;;14.90;99.90;;;;;;5056673;28;20097;-72
2021/09/11 05:29:09;;;;;;;17.15;11.43;;;14.90;99.90;;;;;;5052454;28;20053;-71
2021/09/11 05:31:35;;;;;;;20.73;11.35;;;14.90;99.90;;;;;;5053398;28;20037;-71
2021/09/11 05:34:01;;;;;;;20.35;11.38;;;14.90;99.90;;;;;;5054622;28;20025;-69
2021/09/11 05:36:27;;;;;;;16.23;10.88;;;15.00;99.90;;;;;;5054535;28;20032;-71
2021/09/11 05:38:53;;;;;;;19.92;11.18;;;15.20;99.90;;;;;;5053847;28;20033;-66
2021/09/11 05:41:19;;;;;;;22.65;11.52;;;15.30;99.90;;;;;;5054468;28;20029;-66
2021/09/11 05:43:45;;;;;;;21.42;11.88;;;15.30;99.90;;;;;;5054431;28;20074;-66
2021/09/11 05:46:10;;;;;;;16.13;10.85;;;15.40;99.90;;;;;;5054418;28;20393;-65
2021/09/11 05:48:36;;;;;;;20.10;11.18;;;15.50;99.90;;;;;;5054241;28;20037;-66
2021/09/11 05:51:03;;;;;;;21.48;11.50;;;15.50;99.90;;;;;;5054289;28;20025;-69
2021/09/11 05:53:29;;;;;;;22.65;11.02;;;15.70;99.90;;;;;;5054165;28;20159;-72
2021/09/11 05:55:55;;;;;;;24.33;11.82;;;15.70;99.90;;;;;;5052855;28;20061;-75
2021/09/11 05:58:23;;;;;;;26.10;12.43;;;15.70;99.90;;;;;;5053779;28;20029;-70
2021/09/11 06:00:49;;;;;;;21.55;13.48;;;15.80;99.90;;;;;;5052712;28;20063;-72
2021/09/11 06:03:15;;;;;;;23.52;13.07;;;15.80;99.90;;;;;;5054068;28;20083;-73
2021/09/11 06:05:41;;;;;;;24.55;12.90;;;15.90;99.90;;;;;;5054036;28;20420;-71
2021/09/11 06:08:07;;;;;;;19.77;11.68;;;16.00;99.90;;;;;;5053980;28;20100;-71
2021/09/11 06:10:33;;;;;;;26.05;12.35;;;16.00;99.90;;;;;;5053905;28;20033;-73
2021/09/11 06:12:59;;;;;;;19.48;12.80;;;16.10;99.90;;;;;;5053587;28;20538;-72
2021/09/11 06:15:26;;;;;;;13.85;11.45;;;16.20;99.90;;;;;;5053739;28;20100;-74
2021/09/11 06:17:52;;;;;;;15.75;12.10;;;16.20;99.90;;;;;;5054013;28;20021;-71
2021/09/11 06:20:18;;;;;;;20.98;12.10;;;16.30;99.90;;;;;;5052324;28;20033;-70
2021/09/11 06:22:45;;;;;;;20.80;12.90;;;16.40;99.90;;;;;;5052383;28;20075;-71
2021/09/11 06:25:13;;;;;;;21.65;12.13;;;16.40;99.90;;;;;;5052243;28;20121;-71
2021/09/11 06:27:40;;;;;;;21.85;12.10;;;16.50;99.90;;;;;;5060404;28;20044;-72
2021/09/11 06:30:08;;;;;;;14.00;11.75;;;16.60;99.90;;;;;;5055512;28;20052;-72
2021/09/11 06:32:34;;;;;;;16.95;11.95;;;16.60;99.90;;;;;;5073438;28;20025;-70
2021/09/11 06:34:59;;;;;;;18.60;12.05;;;16.70;99.90;;;;;;5055438;28;20024;-72
2021/09/11 06:37:25;;;;;;;15.73;11.45;;;16.80;99.90;;;;;;5073661;28;20028;-71
2021/09/11 06:39:51;;;;;;;29.67;12.95;;;16.90;99.90;;;;;;5072984;28;20033;-73
2021/09/11 06:42:19;;;;;;;21.92;11.73;;;17.00;99.90;;;;;;5073282;28;20465;-71
2021/09/11 06:44:46;;;;;;;20.80;11.15;;;17.00;99.90;;;;;;5055255;28;20111;-72
2021/09/11 06:47:13;;;;;;;13.57;10.68;;;17.10;99.90;;;;;;5055313;28;20036;-75
2021/09/11 06:49:39;;;;;;;21.38;11.73;;;17.30;99.90;;;;;;5054544;28;20079;-71
2021/09/11 06:52:05;;;;;;;21.77;11.77;;;17.40;99.90;;;;;;5073084;28;20123;-73
2021/09/11 06:54:31;;;;;;;18.23;10.43;;;17.50;99.90;;;;;;5055108;28;20169;-73
2021/09/11 06:56:57;;;;;;;13.55;9.80;;;17.60;99.90;;;;;;5055180;28;20039;-72
2021/09/11 06:59:22;;;;;;;15.18;8.43;;;17.70;99.70;;;;;;5073162;28;20028;-73
2021/09/11 07:01:48;;;;;;;13.27;9.30;;;17.90;98.00;;;;;;5055021;28;20117;-73
2021/09/11 07:04:14;;;;;;;22.13;10.60;;;18.00;97.60;;;;;;5054989;28;20035;-72
2021/09/11 07:06:40;;;;;;;15.13;8.85;;;18.20;96.90;;;;;;5054951;28;20054;-72
2021/09/11 07:09:06;;;;;;;15.82;9.35;;;18.40;97.30;;;;;;5072797;28;20036;-72
2021/09/11 07:11:32;;;;;;;13.85;7.25;;;18.50;95.20;;;;;;5072696;28;20029;-73
2021/09/11 07:13:58;;;;;;;14.95;8.27;;;18.60;95.00;;;;;;5054900;28;20461;-73
2021/09/11 07:16:24;;;;;;;13.02;7.53;;;18.80;94.30;;;;;;5072845;28;20031;-74
2021/09/11 07:18:50;;;;;;;11.90;7.25;;;18.90;93.00;;;;;;5072646;28;20032;-74
2021/09/11 07:21:16;;;;;;;16.10;7.32;;;19.10;92.60;;;;;;5072846;28;20021;-73
2021/09/11 07:23:42;;;;;;;28.02;7.53;;;19.20;92.90;;;;;;5054828;28;20025;-73
2021/09/11 07:26:08;;;;;;;14.23;7.28;;;19.40;91.50;;;;;;5054660;28;20029;-73
2021/09/11 07:28:34;;;;;;;13.43;7.32;;;19.50;91.40;;;;;;5072504;28;20063;-74
2021/09/11 07:31:00;;;;;;;11.82;6.85;;;19.60;91.10;;;;;;5072811;28;20025;-74
2021/09/11 07:33:25;;;;;;;12.23;7.30;;;19.70;90.50;;;;;;5073069;28;20024;-73
2021/09/11 07:35:51;;;;;;;13.73;6.97;;;19.90;90.00;;;;;;5072721;28;20027;-72
2021/09/11 07:38:17;;;;;;;14.98;7.38;;;20.00;87.70;;;;;;5072808;28;20471;-75
2021/09/11 07:40:43;;;;;;;15.02;8.32;;;20.10;88.40;;;;;;5054601;28;20114;-75
2021/09/11 07:43:10;;;;;;;20.02;8.82;;;20.20;87.50;;;;;;5072692;28;20071;-73
2021/09/11 07:45:38;;;;;;;14.60;7.78;;;20.30;86.10;;;;;;5054658;28;20035;-72
2021/09/11 07:48:04;;;;;;;13.10;7.28;;;20.50;85.10;;;;;;5054660;28;20071;-74
2021/09/11 07:50:31;;;;;;;12.98;6.65;;;20.60;84.90;;;;;;5054491;28;20160;-73
2021/09/11 07:52:57;;;;;;;15.32;7.28;;;20.70;82.30;;;;;;5054580;28;20393;-73
2021/09/11 07:55:23;;;;;;;16.27;7.32;;;20.90;97.20;;;;;;5054189;28;20021;-74
2021/09/11 07:57:49;;;;;;;14.68;7.15;;;21.00;83.20;;;;;;5072576;28;20024;-73
2021/09/11 08:00:18;;;;;;;14.68;7.07;;;21.10;82.10;;;;;;5072094;28;20134;-74
2021/09/11 08:02:44;;;;;;;11.90;6.43;;;21.30;84.40;;;;;;5076463;28;20488;-73
2021/09/11 08:05:11;;;;;;;13.80;6.95;;;21.40;82.10;;;;;;5076515;28;20277;-72
2021/09/11 08:07:36;;;;;;;14.45;7.43;;;21.60;80.50;;;;;;5075914;28;20020;-73
2021/09/11 08:10:03;;;;;;;15.65;6.75;;;21.80;81.70;;;;;;5076098;28;20485;-74
2021/09/11 08:12:29;;;;;;;17.20;7.22;;;22.00;86.70;;;;;;5058159;28;20033;-74
2021/09/11 08:14:55;;;;;;;12.23;7.20;;;22.10;80.30;;;;;;5076246;28;20396;-75
2021/09/11 08:17:20;;;;;;;16.70;6.47;;;22.20;78.00;;;;;;5058124;28;20416;-72
2021/09/11 08:19:46;;;;;;;17.08;6.35;;;22.40;76.50;;;;;;5074693;28;20040;-75
2021/09/11 08:22:12;;;;;;;13.73;6.03;;;22.60;78.00;;;;;;5074820;28;20028;-76
2021/09/11 08:24:38;;;;;;;12.52;5.93;;;22.70;76.90;;;;;;5057906;28;20016;-75
2021/09/11 08:27:04;;;;;;;19.10;6.38;;;22.90;76.90;;;;;;5075534;28;20063;-74
2021/09/11 08:29:30;;;;;;;14.23;6.00;;;23.00;75.20;;;;;;5076051;28;20029;-74
2021/09/11 08:31:56;;;;;;;15.15;5.95;;;23.20;73.30;;;;;;5057786;28;20028;-73
2021/09/11 08:34:30;;;;;;;10.63;5.75;;;23.50;73.70;;;;;;5075390;28;20029;-76
2021/09/11 08:36:56;;;;;;;12.20;5.97;;;23.60;73.50;;;;;;5075701;28;20534;-74
2021/09/11 08:39:24;;;;;;;8.68;5.38;;;;;;;;;;5075614;28;20032;-75
2021/09/11 08:41:51;;;;;;;13.07;5.72;;;;;;;;;;5075577;28;20100;-72
2021/09/11 08:44:17;;;;;;;9.80;5.13;;;23.60;73.50;;;;;;5075523;28;20031;-74
2021/09/11 08:46:43;;;;;;;16.83;5.78;;;24.20;73.00;;;;;;5075454;28;20031;-75
2021/09/11 08:49:10;;;;;;;9.27;5.25;;;24.20;69.70;;;;;;5057522;28;20036;-75
2021/09/11 08:51:38;;;;;;;13.38;5.80;;;24.40;72.00;;;;;;5075426;28;20024;-75
2021/09/11 08:54:04;;;;;;;12.80;5.18;;;24.60;69.50;;;;;;5057308;28;20021;-75
2021/09/11 08:56:44;;;;;;;11.93;4.50;;;24.80;68.30;;;;;;5057253;28;20122;-73
2021/09/11 08:59:12;;;;;;;11.35;4.50;;;24.90;68.30;;;;;;5075250;28;20040;-77
2021/09/11 09:01:39;;;;;;;13.80;5.30;;;25.10;67.10;;;;;;5075440;28;20377;-72
2021/09/11 09:04:05;;;;;;;13.05;4.95;;;25.20;66.10;;;;;;5075141;28;20488;-74
2021/09/11 09:06:32;;;;;;;11.75;5.40;;;;;;;;;;5057010;28;20028;-76
2021/09/11 09:09:11;;;;;;;11.25;5.03;;;25.40;66.00;;;;;;5075082;28;20020;-74
2021/09/11 09:11:44;;;;;;;12.48;5.07;;;25.60;65.50;;;;;;5075043;28;20485;-76
2021/09/11 09:14:16;;;;;;;9.43;5.03;;;25.90;65.20;;;;;;5074304;28;20061;-75
2021/09/11 09:16:51;;;;;;;9.48;5.30;;;26.00;64.60;;;;;;5074842;28;20052;-74
2021/09/11 09:19:20;;;;;;;9.93;4.88;;;26.10;62.60;;;;;;5056631;28;20064;-73
2021/09/11 09:21:48;;;;;;;7.75;4.80;;;26.20;62.90;;;;;;5056712;28;20380;-75
2021/09/11 09:24:30;;;;;;;12.70;5.15;;;26.40;65.10;;;;;;5056469;28;20024;-75
2021/09/11 09:26:58;;;;;;;9.57;4.82;;;26.60;64.50;;;;;;5074152;28;20488;-74
2021/09/11 09:29:24;;;;;;;9.80;5.03;;;26.70;63.30;;;;;;5074397;28;20186;-74
2021/09/11 09:31:56;;;;;;;11.05;4.60;;;26.90;63.20;;;;;;5056611;28;20536;-75
2021/09/11 09:34:31;;;;;;;;;;;26.90;62.10;;;;;;5075038;28;20055;-75
2021/09/11 09:36:58;;;;;;;9.35;4.60;;;27.10;62.30;;;;;;5056519;28;19904;-76
2021/09/11 09:39:24;;;;;;;9.07;5.22;;;27.10;60.30;;;;;;5073980;28;20504;-74
2021/09/11 09:41:53;;;;;;;9.65;4.57;;;27.20;61.10;;;;;;5056311;28;20016;-74
2021/09/11 09:44:21;;;;;;;8.13;4.18;;;27.50;59.60;;;;;;5074340;28;20020;-73
2021/09/11 09:46:49;;;;;;;11.00;4.72;;;27.50;60.50;;;;;;5081918;28;20020;-73
2021/09/11 09:49:21;;;;;;;9.30;4.47;;;27.60;59.00;;;;;;5072907;28;20127;-75
2021/09/11 09:51:48;;;;;;;6.75;4.38;;;27.70;57.80;;;;;;5072827;28;20373;-76
2021/09/11 09:54:16;;;;;;;7.25;4.55;;;27.80;59.70;;;;;;5072589;28;20028;-77
2021/09/11 09:56:42;;;;;;;10.65;5.18;;;28.00;61.70;;;;;;5072710;28;20032;-76
2021/09/11 09:59:09;;;;;;;9.48;4.85;;;28.10;58.10;;;;;;5073980;28;20473;-76
2021/09/11 10:01:37;;;;;;;13.98;4.22;;;28.40;60.60;;;;;;5073988;28;20036;-73
2021/09/11 10:04:17;;;;;;;11.93;4.75;;;28.50;58.40;;;;;;5073747;28;20043;-78
2021/09/11 10:06:48;;;;;;;14.20;4.35;;;28.60;57.50;;;;;;5073547;28;20429;-76
2021/09/11 10:09:15;;;;;;;8.15;4.60;;;28.90;58.50;;;;;;5072239;28;20040;-76
2021/09/11 10:11:49;;;;;;;9.88;4.03;;;;;;;;;;5072438;28;20052;-75
2021/09/11 10:14:17;;;;;;;13.68;4.75;;;29.30;61.20;;;;;;5073391;28;20443;-75
2021/09/11 10:16:59;;;;;;;8.05;4.20;;;29.80;56.60;;;;;;5073642;28;20024;-76
2021/09/11 10:19:28;;;;;;;8.05;3.95;;;30.20;55.00;;;;;;5072305;28;20028;-74
2021/09/11 10:22:18;;;;;;;15.85;4.82;;;30.50;54.80;;;;;;5072233;28;20024;-75
2021/09/11 10:24:48;;;;;;;12.20;4.43;;;;;;;;;;5072552;28;20044;-76
2021/09/11 10:27:23;;;;;;;12.35;3.72;;;31.90;51.20;;;;;;5073385;28;20496;-75
2021/09/11 10:29:51;;;;;;;9.05;4.20;;;32.20;51.90;;;;;;5072117;28;20036;-74
2021/09/11 10:32:24;;;;;;;9.98;4.07;;;32.50;55.20;;;;;;5073341;28;20028;-75
2021/09/11 10:35:02;;;;;;;10.07;4.07;;;33.00;48.00;;;;;;5072122;28;20031;-75
2021/09/11 10:37:46;;;;;;;12.05;4.03;;;33.60;48.90;;;;;;5073602;28;20056;-76
2021/09/11 10:40:32;;;;;;;9.73;4.25;;;34.20;46.90;;;;;;5071820;28;20082;-75
2021/09/11 10:43:05;;;;;;;5.50;3.22;;;34.60;46.90;;;;;;5073289;28;20029;-75
2021/09/11 10:45:37;;;;;;;4.75;3.10;;;;;;;;;;5071973;28;20420;-74
2021/09/11 10:48:27;;;;;;;11.50;3.88;;;34.70;45.40;;;;;;5070334;28;20024;-74
2021/09/11 10:50:53;;;;;;;6.40;3.55;;;35.80;45.20;;;;;;5071019;28;20460;-77
2021/09/11 10:53:20;;;;;;;6.78;4.10;;;36.20;44.60;;;;;;5055004;28;20028;-77
2021/09/11 10:55:48;;;;;;;11.25;3.95;;;36.50;44.30;;;;;;5068918;28;20032;-74
2021/09/11 10:58:22;;;;;;;8.80;3.85;;;37.30;43.50;;;;;;5087150;28;20025;-74
2021/09/11 11:01:01;;;;;;;11.02;3.30;;;38.20;40.90;;;;;;5079849;28;20432;-72
2021/09/11 11:03:28;;;;;;;12.85;3.63;;;37.70;40.30;;;;;;5081424;28;20031;-74
2021/09/11 11:06:02;;;;;;;8.45;3.03;;;38.40;41.00;;;;;;5082631;28;20078;-73
2021/09/11 11:08:30;;;;;;;9.35;3.78;;;38.70;38.70;;;;;;5081840;28;20098;-73
2021/09/11 11:10:56;;;;;;;8.05;3.13;;;38.90;39.00;;;;;;5074919;28;20020;-75
2021/09/11 11:13:23;;;;;;;8.68;2.65;;;39.50;39.20;;;;;;5093168;28;20032;-77
2021/09/11 11:15:54;;;;;;;17.20;3.88;;;40.20;37.50;;;;;;5075030;28;20422;-75
2021/09/11 11:18:20;;;;;;;10.07;3.35;;;40.50;37.50;;;;;;5093044;28;20033;-76
2021/09/11 11:20:46;;;;;;;17.58;2.95;;;;;;;;;;5092632;28;20481;-76
2021/09/11 11:23:12;;;;;;;9.43;3.33;;;;;;;;;;5074723;28;20081;-76
2021/09/11 11:25:39;;;;;;;8.30;3.05;;;40.70;37.90;;;;;;5074797;28;20058;-76
2021/09/11 11:28:07;;;;;;;9.88;3.17;;;42.20;36.10;;;;;;5074316;28;20040;-75
2021/09/11 11:30:40;;;;;;;11.30;3.10;;;42.20;35.80;;;;;;5074808;28;20032;-76
2021/09/11 11:33:07;;;;;;;4.28;2.97;;;42.30;36.40;;;;;;5074501;28;20103;-76
2021/09/11 11:35:38;;;;;;;6.93;2.75;;;42.80;36.00;;;;;;5093292;28;20074;-75
2021/09/11 11:38:03;;;;;;;7.00;2.80;;;42.90;34.90;;;;;;5078937;28;20067;-76
2021/09/11 11:40:29;;;;;;;5.03;2.50;;;43.30;35.20;;;;;;5096935;28;20068;-76
2021/09/11 11:43:02;;;;;;;6.60;2.50;;;43.70;35.20;;;;;;5078701;28;20044;-76
2021/09/11 11:45:28;;;;;;;7.68;2.25;;;43.80;33.90;;;;;;5078734;28;20035;-75
2021/09/11 11:48:08;;;;;;;3.65;2.25;;;43.90;33.50;;;;;;5097133;28;20440;-78
2021/09/11 11:50:43;;;;;;;5.17;2.17;;;43.80;34.90;;;;;;5078690;28;20502;-76
2021/09/11 11:53:16;;;;;;;7.93;2.33;;;44.30;33.80;;;;;;5096845;28;20056;-76
2021/09/11 11:55:45;;;;;;;8.73;2.20;;;44.30;33.80;;;;;;5096797;28;20024;-73
2021/09/11 11:58:18;;;;;;;4.85;2.55;;;44.60;34.00;;;;;;5096303;28;20051;-76
2021/09/11 12:00:46;;;;;;;3.55;2.20;;;44.30;34.20;;;;;;5096634;28;20081;-75
2021/09/11 12:03:36;;;;;;;10.23;2.88;;;44.50;34.20;;;;;;5096418;28;20523;-73
2021/09/11 12:06:04;;;;;;;4.82;3.03;;;44.70;33.50;;;;;;5078194;28;20032;-74
2021/09/11 12:08:39;;;;;;;7.40;2.75;;;44.30;33.60;;;;;;5078137;28;20361;-76
2021/09/11 12:11:13;;;;;;;8.40;3.25;;;44.50;33.80;;;;;;5078227;28;20024;-74
2021/09/11 12:13:39;;;;;;;7.97;2.60;;;45.00;34.40;;;;;;5078424;28;20376;-76
2021/09/11 12:16:05;;;;;;;4.70;2.85;;;45.40;33.10;;;;;;5096284;28;20024;-74
2021/09/11 12:18:34;;;;;;;10.45;2.17;;;45.20;32.70;;;;;;5077991;28;20066;-74
2021/09/11 12:21:07;;;;;;;8.90;2.80;;;;;;;;;;5077916;28;20020;-72
2021/09/11 12:23:37;;;;;;;12.25;2.60;;;45.80;33.40;;;;;;5095863;28;20024;-73
2021/09/11 12:26:07;;;;;;;4.78;2.53;;;45.40;33.10;;;;;;5080336;28;20487;-75
2021/09/11 12:28:37;;;;;;;6.22;2.38;;;45.40;32.80;;;;;;5079087;28;20044;-74
2021/09/11 12:31:05;;;;;;;4.75;2.28;;;45.60;33.20;;;;;;5058440;28;20039;-75
2021/09/11 12:33:41;;;;;;;3.00;1.90;;;46.10;32.90;;;;;;5061524;28;20025;-73
2021/09/11 12:36:21;;;;;;;2.55;2.20;;;46.30;31.80;;;;;;5092845;28;20036;-75
2021/09/11 12:38:48;;;;;;;5.93;2.35;;;46.40;31.90;;;;;;5094452;28;20127;-73